KTBR/TBR METAR and TAF weather

Enter ICAO airport designator
Station Type Date Time Source
KTBR METAR 2019/05/19 20:55 UTC NOAA

KTBR 192055Z AUTO 16008KT 10SM SCT060 SCT070 30/17 A3001 RMK AO2 T03020170


Station Type Date Time Source
KTBR Decoded METAR 2019/05/19 20:55 UTC NOAA

Statesboro, Statesboro-Bulloch County Airport, GA, United States (KTBR) 32-28-59N 081-44-14W
May 19, 2019 - 04:55 PM EDT / 2019.05.19 2055 UTC
Wind: from the SSE (160 degrees) at 9 MPH (8 KT):0
Visibility: 10 mile(s):0
Sky conditions: partly cloudy
Temperature: 86.4 F (30.2 C)
Dew Point: 62.6 F (17.0 C)
Relative Humidity: 45%
Pressure (altimeter): 30.01 in. Hg (1016 hPa)
ob: KTBR 192055Z AUTO 16008KT 10SM SCT060 SCT070 30/17 A3001 RMK AO2 T03020170
cycle: 21

Station Type Date Time Source
KTBR TAF UTC NOAA

Error!

Example: see airport list